MAYO2: W. D. Mayo Lock And Dam (L&D 14)

Data processed at Tue Jul 28 23:30:45 2015 Central Daylight Time


All information presented herein is the property of the government of the United States of America and may be revised or deleted at any time without prior notice.
Dissemination of this information without the expressed written consent of the Public Affairs Office, Tulsa District U.S. Army Corps of Engineers is strictly prohibited.
These data are gathered electronically and, as presented, have not undergone any form of quality control. These data are not guaranteed to be valid or correct.
Go to home page.
Go to station list.
Go to station map.

Upstream stations:

Downstream station: Previous Day
Next Day
Current Day

Display graphics.
Display DCP transmissions.


    
    SHEF ID:       MAYO2     W. D. Mayo Lock And Dam (L&D 14)
    STATION TYPE:  NAVIGATION
    Normal Pool:  Bottom =  411.00, Top =  413.00
    
                   PRECIP ELEVATION   STORAGE   TW-ELEV LOCK-ELEV    INFLOW   RELEASE  AIR-TEMP  WIND-DIRWIND-SPEED REL-HUMID SOLAR-RAD   VOLTAGE  BAT-LOAD
                   INCHES      FEET      ACFT      FEET      FEET       CFS       CFS     DEG-F   DEGREES       MPH   PERCENT      W/M2     VOLTS     VOLTS
                     GOES      GOES      GOES      GOES      GOES  COMPRESQ  COMPRESQ      GOES      GOES      GOES      GOES      GOES      GOES      GOES
       (Cen)
    07/28 01:00      0.00    412.23     14546    397.62    412.30     56087     54912     80.65    210.90      0.00     87.30      0.00     13.83     13.12
    07/28 02:00      0.00    412.18     14466    397.58    412.23     54075     54839     79.77    297.60      1.23     88.77      0.00     13.82     13.12
    07/28 03:00      0.00    412.10     14339    397.55    412.15     53480     54744     80.22    195.40      0.00     85.84      0.00     13.82     13.18
    07/28 04:00      0.00    412.05     14259    397.52    412.08     53458     54649     77.47    209.40      0.00     92.49      0.00     13.81     13.12
    07/28 05:00      0.00    411.98     14152    397.50    412.02     53385     54561     79.56    336.50      0.35     91.58      1.00     13.83     13.07
    07/28 06:00      0.00    411.91     14053    397.48    411.95     53430     54456     79.57     31.30      2.70     86.70      0.00     13.82     11.89
    07/28 07:00      0.00    411.86     13983    397.44    411.89     53541     54365     80.22     46.40      2.24     83.27     51.00     13.81     13.00
    07/28 08:00      0.00    411.81     13912    397.40    411.83     53668     54282     83.52      9.70      0.99     76.13     81.00     13.81     13.30
    07/28 09:00      0.00    411.81     13912    397.26    411.93     54109     54244     87.48     86.70      2.39     64.47    408.00     13.84     13.18
    07/28 10:00      0.00    411.79     13884    397.09    412.04     54451     54236     89.56    102.20      2.37     60.62    589.00     13.82     12.48
    07/28 11:00      0.00    411.86     13983    397.00    397.38     55006     54274     91.98    236.40      2.50     50.31    740.00     13.83     13.24
    07/28 12:00      0.00    411.91     14053    397.04    397.33     56426     54365     93.96    261.40      4.45     48.60    844.00     13.84     12.83
    07/28 13:00      0.00    412.01     14196    396.87    397.10     57656     54479     95.50    101.60      3.95     44.76    941.00     13.83     13.24
    07/28 14:00      0.00    412.35     14737    396.93    397.21     58125     54803     96.93    197.00      1.45     43.53    893.00     13.83     13.24
    07/28 15:00      0.00    412.60     15134    396.93    412.72     59038     55234     99.12    129.40      4.02     39.44    882.00     13.84     13.24
    07/28 16:00      0.00    412.72     15325    397.22    412.86     59176     55504     99.01    198.20      2.26     36.14    776.00     13.84     13.24
    07/28 17:00      0.00    412.93     15659    397.53    413.04     58744     55744     97.57    350.80      2.87     44.44    376.00     13.85     13.30
    07/28 18:00      0.00    412.98     15738    397.89    413.08     57534     55934    100.65    260.10      2.11     42.80    389.00     13.84     13.30
    07/28 19:00      0.00    413.14     15994    398.08    398.28     56621     56088     97.70    264.40      1.45     44.87    187.00     13.84     13.30
    07/28 20:00      0.00    413.03     15818    398.85    410.04     55632     56124     92.30    150.30      0.00     56.84     23.00     13.82     13.12
    07/28 21:00      0.00    412.89     15595    399.02    413.05     54901     55942     88.12    139.70      1.78     58.49      2.00     13.83     13.24
    07/28 22:00      0.00    412.84     15516    399.32    406.14     54352     55803     85.71    148.00      1.40     61.97      0.00     13.82     12.95
    07/28 23:00      0.00    412.77     15404    399.13    412.88      ----      ----     83.30    267.60      0.00     68.19      1.00     13.82     13.18
    07/29 00:00      ----      ----      ----      ----      ----      ----      ----      ----      ----      ----      ----      ----      ----      ----